Huff, Kentucky
Current Conditions -  °F | °C
As of 3:53 AM on Monday 22 Dec 2014 (Local Time) from KBWG Reporting Station
Overcast Overcast  
Wind Chill: 34°   Ceiling: 10000
Heat Index: 34°   Visibility: 10mi
Dew Point: 28°   Wind: 0mph
Humidity: 79%   Direction: NA
Pressure: 29.97"   Gusts: NA
Location:  37.2379°N, 86.3446°W
Report Text: KBWG 220953Z AUTO 00000KT 10SM FEW027 OVC100 01/M02 A2997 RMK AO2 SLP150 T00111022
Loading
Personal Weather Stations






























Interactive Weather Map New forecast layout! Learn more

10-Day Weather Forecast

Advertisements
Track Severe Weather on mobile